Time;durP1;ratioP1;P1;durP2;ratioP2;P2;SDS_P1;SDS_P2;PMS_P1;PMS_P2;Temp;Humidity;BMP_temperature;BMP_pressure;BME280_temperature;BME280_humidity;BME280_pressure;Samples;Min_cycle;Max_cycle;Signal;HPM_P1;HPM_P2
2024/02/09 00:00:23;;;;;;;5.95;1.83;;;12.70;70.60;;;8.00;100.00;93547.88;4931326;28;20027;-57
2024/02/09 00:02:49;;;;;;;2.72;1.55;;;12.70;70.60;;;8.07;100.00;93547.47;4932813;29;20027;-60
2024/02/09 00:05:17;;;;;;;5.10;1.88;;;12.70;70.50;;;8.06;100.00;93546.69;4931847;29;20077;-60
2024/02/09 00:07:50;;;;;;;5.47;2.08;;;12.70;70.50;;;8.13;100.00;93556.09;4931765;29;20070;-58
2024/02/09 00:10:18;;;;;;;3.60;2.10;;;12.70;70.40;;;8.13;100.00;93543.63;4932785;29;20485;-59
2024/02/09 00:12:48;;;;;;;5.72;2.10;;;12.70;70.30;;;8.07;100.00;93537.63;4930949;29;20023;-59
2024/02/09 00:15:18;;;;;;;5.75;2.17;;;12.70;70.30;;;8.04;100.00;93535.59;4932564;29;20023;-56
2024/02/09 00:17:44;;;;;;;3.33;1.80;;;12.70;70.20;;;8.06;100.00;93538.72;4935005;29;20070;-55
2024/02/09 00:20:11;;;;;;;4.82;2.17;;;12.70;70.20;;;8.08;100.00;93525.97;4936442;29;20489;-56
2024/02/09 00:22:39;;;;;;;4.95;2.08;;;12.70;70.20;;;8.07;100.00;93544.81;4936189;29;20063;-57
2024/02/09 00:25:10;;;;;;;4.53;2.00;;;12.70;70.20;;;8.07;100.00;93548.25;4935510;29;20509;-56
2024/02/09 00:27:40;;;;;;;7.47;2.25;;;12.70;70.10;;;8.05;100.00;93545.13;4935403;29;20121;-57
2024/02/09 00:30:08;;;;;;;3.83;2.30;;;12.60;70.10;;;7.99;100.00;93537.56;4935590;29;20410;-60
2024/02/09 00:32:35;;;;;;;4.55;2.22;;;12.60;70.00;;;7.96;100.00;93536.31;4935766;29;20023;-60
2024/02/09 00:35:07;;;;;;;3.42;2.25;;;12.60;70.10;;;7.92;100.00;93530.00;4944158;28;20481;-58
2024/02/09 00:37:33;;;;;;;4.88;2.47;;;12.60;70.10;;;7.91;100.00;93539.06;4935432;29;20033;-59
2024/02/09 00:39:58;;;;;;;4.20;2.03;;;12.60;70.10;;;7.85;100.00;93537.59;4935870;29;20031;-60
2024/02/09 00:42:25;;;;;;;4.28;2.08;;;12.50;70.00;;;7.79;100.00;93533.47;4934233;28;20118;-58
2024/02/09 00:44:51;;;;;;;3.53;2.00;;;12.50;70.00;;;7.78;100.00;93535.34;4941180;28;20030;-59
2024/02/09 00:47:16;;;;;;;3.90;2.00;;;12.40;70.00;;;7.73;100.00;93532.00;4934383;29;20410;-60
2024/02/09 00:49:46;;;;;;;7.22;2.53;;;12.40;70.00;;;7.70;100.00;93530.72;4935521;29;20039;-58
2024/02/09 00:52:14;;;;;;;4.90;2.33;;;12.40;70.20;;;7.70;100.00;93524.66;4935963;29;20111;-58
2024/02/09 00:54:41;;;;;;;5.93;2.40;;;12.40;70.20;;;7.68;100.00;93524.16;4934205;28;20031;-58
2024/02/09 00:57:07;;;;;;;5.68;2.30;;;12.40;70.20;;;7.62;100.00;93518.19;4935554;29;20050;-58
2024/02/09 00:59:38;;;;;;;5.35;2.38;;;12.30;70.20;;;7.58;100.00;93520.66;4930631;29;20026;-60
2024/02/09 01:02:06;;;;;;;7.65;3.28;;;12.30;71.00;;;7.57;100.00;93520.91;4935031;29;20034;-59
2024/02/09 01:04:37;;;;;;;7.63;2.50;;;12.30;70.40;;;7.53;100.00;93526.03;4935469;29;20118;-56
2024/02/09 01:07:05;;;;;;;5.93;2.40;;;12.30;70.40;;;7.54;100.00;93522.28;4932654;29;20131;-60
2024/02/09 01:09:34;;;;;;;5.95;2.50;;;12.30;70.40;;;7.54;100.00;93524.94;4935196;29;20043;-59
2024/02/09 02:45:12;;;;;;;8.05;4.15;;;12.10;72.00;;;7.72;100.00;93527.78;4971329;28;20108;-56
2024/02/09 02:47:40;;;;;;;7.45;4.35;;;12.20;72.10;;;7.74;100.00;93529.06;4969947;28;20014;-51
2024/02/09 03:06:34;;;;;;;13.23;6.57;;;12.20;72.40;;;7.84;100.00;93514.81;4969270;28;20107;-52
2024/02/09 03:09:00;;;;;;;14.15;7.03;;;12.20;72.40;;;7.83;100.00;93499.97;4970765;28;20050;-53
2024/02/09 03:11:26;;;;;;;10.10;6.80;;;12.20;72.50;;;7.83;100.00;93513.22;4969429;28;20463;-53
2024/02/09 03:13:52;;;;;;;13.57;7.03;;;12.20;72.60;;;7.85;100.00;93501.25;4970887;28;20030;-50
2024/02/09 03:16:19;;;;;;;12.65;7.38;;;12.20;72.60;;;7.86;100.00;93517.94;4969445;28;20030;-51
2024/02/09 03:18:45;;;;;;;10.93;7.05;;;12.30;72.70;;;7.86;100.00;93502.81;4970099;28;20460;-55
2024/02/09 03:21:16;;;;;;;12.25;6.80;;;12.30;72.70;;;7.87;100.00;93509.72;4970592;28;20018;-53
2024/02/09 03:23:42;;;;;;;14.23;7.65;;;12.30;72.90;;;7.88;100.00;93513.91;4963525;28;20084;-51
2024/02/09 03:26:08;;;;;;;11.43;6.97;;;12.30;72.90;;;7.93;100.00;93512.22;4968478;28;20485;-52
2024/02/09 03:28:34;;;;;;;13.13;6.85;;;12.30;73.00;;;7.91;100.00;93507.25;4969691;28;20556;-51
2024/02/09 03:30:59;;;;;;;11.55;6.82;;;12.30;73.00;;;7.95;100.00;93515.38;4969665;28;20026;-51
2024/02/09 03:33:25;;;;;;;11.85;6.43;;;12.30;73.10;;;7.96;100.00;93517.75;4970560;28;20029;-52
2024/02/09 03:35:51;;;;;;;11.95;6.60;;;12.30;73.10;;;7.97;100.00;93502.63;4969683;28;20113;-54
2024/02/09 03:38:19;;;;;;;11.20;6.30;;;12.30;73.10;;;8.00;100.00;93515.28;4970010;28;20109;-52
2024/02/09 03:40:45;;;;;;;10.85;5.80;;;12.40;73.20;;;7.99;100.00;93509.19;4970632;28;20050;-52
2024/02/09 03:43:12;;;;;;;8.75;6.07;;;12.30;73.20;;;7.98;100.00;93506.84;4969245;28;20072;-53
2024/02/09 03:45:41;;;;;;;16.15;6.18;;;12.40;73.30;;;7.98;100.00;93514.78;4970008;28;20495;-51
2024/02/09 03:48:07;;;;;;;9.60;6.13;;;12.40;73.30;;;8.00;100.00;93520.59;4968974;28;20117;-53
2024/02/09 03:50:34;;;;;;;8.65;5.60;;;12.30;73.30;;;8.02;100.00;93518.41;4970075;28;20113;-50
2024/02/09 03:53:00;;;;;;;7.93;5.00;;;12.40;73.40;;;8.04;100.00;93522.31;4974372;28;20088;-51
2024/02/09 03:55:26;;;;;;;8.38;4.70;;;12.40;73.50;;;8.01;100.00;93517.63;4973177;28;20041;-51
2024/02/09 03:57:52;;;;;;;7.07;4.68;;;12.40;73.60;;;8.03;100.00;93517.34;4972976;28;20026;-50
2024/02/09 04:00:18;;;;;;;6.97;4.30;;;12.40;73.70;;;8.04;100.00;93517.03;4972529;28;20022;-53
2024/02/09 04:02:45;;;;;;;7.47;4.30;;;12.40;73.70;;;8.07;100.00;93513.00;4973972;28;20560;-50
2024/02/09 04:05:12;;;;;;;8.30;4.35;;;12.40;73.70;;;8.07;100.00;93519.06;4973265;28;20034;-52
2024/02/09 04:07:38;;;;;;;7.10;3.95;;;12.40;73.80;;;8.12;100.00;93512.91;4973640;28;20591;-54
2024/02/09 04:10:06;;;;;;;6.05;3.83;;;12.40;73.80;;;8.08;100.00;93507.41;4974046;28;20112;-54
2024/02/09 04:12:31;;;;;;;8.85;3.72;;;12.40;73.90;;;8.13;100.00;93505.72;4974357;28;20401;-56
2024/02/09 04:14:57;;;;;;;6.32;3.63;;;12.40;73.80;;;8.14;100.00;93500.09;4973654;28;20033;-54
2024/02/09 04:17:25;;;;;;;5.70;3.80;;;12.50;73.90;;;8.16;100.00;93491.88;4972831;28;20026;-53
2024/02/09 04:19:53;;;;;;;4.40;2.95;;;12.50;73.90;;;8.15;100.00;93492.94;4973625;28;20022;-54
2024/02/09 04:22:19;;;;;;;6.25;3.10;;;12.50;73.90;;;8.14;100.00;93494.81;4974460;28;20049;-54
2024/02/09 04:24:47;;;;;;;6.40;3.45;;;12.50;73.90;;;8.15;100.00;93493.72;4987677;28;20480;-55
2024/02/09 04:27:15;;;;;;;6.97;3.20;;;12.50;73.90;;;8.15;100.00;93495.56;4973854;28;20022;-55
2024/02/09 04:29:40;;;;;;;5.55;2.70;;;12.50;73.80;;;8.10;100.00;93484.00;4972471;28;20436;-55
2024/02/09 04:32:06;;;;;;;6.15;2.95;;;12.50;73.90;;;8.13;100.00;93487.94;4973690;28;20018;-54
2024/02/09 04:34:32;;;;;;;8.02;3.42;;;12.50;73.80;;;8.15;100.00;93483.13;4973821;28;20397;-51
2024/02/09 04:36:59;;;;;;;5.68;3.10;;;12.50;73.80;;;8.18;100.00;93479.06;4973810;28;20022;-55
2024/02/09 04:39:26;;;;;;;6.22;3.25;;;12.50;73.80;;;8.14;100.00;93475.47;4974435;28;20021;-52
2024/02/09 04:41:52;;;;;;;6.45;3.17;;;12.60;73.80;;;8.13;100.00;93472.03;4972531;28;20040;-51
2024/02/09 04:44:20;;;;;;;8.55;3.55;;;12.60;73.80;;;8.11;100.00;93468.88;4973626;28;20030;-52
2024/02/09 04:46:48;;;;;;;7.80;3.85;;;12.50;73.80;;;8.12;100.00;93470.47;4973340;28;20021;-55
2024/02/09 04:49:14;;;;;;;8.35;4.28;;;12.50;73.80;;;8.17;100.00;93474.84;4971929;28;20351;-50
2024/02/09 04:51:46;;;;;;;6.65;3.95;;;12.50;73.80;;;8.16;100.00;93470.66;4972129;28;20036;-54
2024/02/09 04:54:13;;;;;;;7.63;3.88;;;12.50;73.80;;;8.16;100.00;93470.66;4972908;28;20100;-54
2024/02/09 04:56:40;;;;;;;7.22;3.97;;;12.50;73.70;;;8.17;100.00;93469.56;4972999;28;20022;-52
2024/02/09 04:59:09;;;;;;;5.60;3.58;;;12.50;73.80;;;8.16;100.00;93471.44;4972964;28;20022;-53
2024/02/09 05:01:38;;;;;;;7.88;4.25;;;12.50;73.80;;;8.15;100.00;93471.72;4973805;28;20014;-53
2024/02/09 05:04:14;;;;;;;8.43;3.38;;;12.50;73.80;;;8.15;100.00;93472.53;4973411;28;20061;-55
2024/02/09 05:06:42;;;;;;;6.95;3.42;;;12.50;73.80;;;8.15;100.00;93483.13;4966752;28;20622;-56
2024/02/09 05:09:09;;;;;;;5.47;3.58;;;12.60;73.70;;;8.17;100.00;93466.91;4972530;28;20038;-56
2024/02/09 05:11:38;;;;;;;4.97;3.20;;;12.60;74.50;;;8.17;100.00;93470.34;4968320;28;20444;-54
2024/02/09 05:14:07;;;;;;;9.15;3.33;;;12.60;73.70;;;8.15;100.00;93466.41;4973085;28;20022;-53
2024/02/09 05:16:38;;;;;;;4.93;3.20;;;12.60;73.60;;;8.13;100.00;93468.59;4972475;28;20018;-54
2024/02/09 05:19:07;;;;;;;6.15;3.72;;;12.60;73.60;;;8.09;100.00;93458.59;4971321;28;20026;-56
2024/02/09 05:21:36;;;;;;;8.00;3.88;;;12.60;73.50;;;8.09;100.00;93468.41;4972567;28;20469;-53
2024/02/09 05:24:03;;;;;;;7.03;4.18;;;12.60;73.40;;;8.11;100.00;93456.41;4971923;28;20038;-56
2024/02/09 05:26:31;;;;;;;6.45;3.70;;;12.60;73.50;;;8.11;100.00;93459.06;4987315;28;21113;-53
2024/02/09 05:28:57;;;;;;;20.00;3.95;;;12.60;73.40;;;8.11;100.00;93461.69;4972278;28;20444;-55
2024/02/09 05:31:23;;;;;;;7.70;4.28;;;12.60;73.30;;;8.06;100.00;93437.19;4971630;28;20102;-53
2024/02/09 05:33:50;;;;;;;6.82;4.05;;;12.60;73.30;;;8.05;100.00;93431.13;4972752;28;20038;-52
2024/02/09 05:36:26;;;;;;;7.70;4.70;;;12.60;73.20;;;8.03;100.00;93446.53;4971379;28;20029;-53
2024/02/09 05:39:00;;;;;;;8.35;4.47;;;12.60;73.30;;;8.00;100.00;93443.69;4971700;28;20030;-52
2024/02/09 05:41:26;;;;;;;18.13;5.38;;;12.60;73.30;;;8.03;100.00;93449.19;4971552;28;20051;-56
2024/02/09 05:43:52;;;;;;;16.25;5.85;;;12.60;73.30;;;7.98;100.00;93441.34;4972249;28;20477;-55
2024/02/09 05:46:18;;;;;;;11.93;5.97;;;12.60;73.30;;;8.02;100.00;93444.97;4987262;28;20084;-56
2024/02/09 05:48:47;;;;;;;10.65;6.25;;;12.60;73.40;;;8.04;100.00;93440.13;4969625;28;20485;-53
2024/02/09 05:51:17;;;;;;;9.07;6.35;;;12.60;73.50;;;8.05;100.00;93433.75;4986545;28;20108;-54
2024/02/09 05:53:46;;;;;;;10.35;5.68;;;12.60;73.50;;;8.05;100.00;93433.75;4985724;28;20050;-55
2024/02/09 05:56:27;;;;;;;11.55;5.72;;;12.60;73.50;;;8.04;100.00;93423.44;4971388;28;20033;-55
2024/02/09 05:58:57;;;;;;;8.82;6.93;;;12.60;73.70;;;8.06;100.00;93416.75;4971877;28;20412;-55
2024/02/09 06:01:33;;;;;;;9.10;5.93;;;12.60;73.70;;;8.08;100.00;93422.56;4971336;28;20280;-56
2024/02/09 06:03:59;;;;;;;9.57;6.35;;;12.60;73.70;;;8.10;100.00;93428.31;4972379;28;20276;-56
2024/02/09 06:06:26;;;;;;;10.60;5.82;;;12.60;73.60;;;8.10;100.00;93449.53;4969979;28;20046;-55
2024/02/09 06:08:52;;;;;;;8.98;5.65;;;12.70;73.70;;;8.08;100.00;93446.41;4970517;28;20161;-53
2024/02/09 06:11:18;;;;;;;10.88;6.45;;;12.70;73.70;;;8.09;100.00;93439.25;4970340;28;20053;-53
2024/02/09 06:13:46;;;;;;;9.77;5.75;;;12.70;73.70;;;8.10;100.00;93446.09;4971585;28;20038;-50
2024/02/09 06:16:23;;;;;;;11.13;5.75;;;12.70;73.60;;;7.98;100.00;93441.34;4971534;28;20049;-56
2024/02/09 06:18:49;;;;;;;9.40;6.43;;;12.70;73.60;;;8.03;100.00;93441.22;4970623;28;20033;-54
2024/02/09 06:21:18;;;;;;;12.18;6.50;;;12.70;73.50;;;8.01;100.00;93442.59;4971937;28;20030;-52
2024/02/09 06:23:46;;;;;;;12.13;6.30;;;12.70;73.50;;;8.06;100.00;93453.09;4969285;28;20080;-53
2024/02/09 06:26:23;;;;;;;11.40;6.32;;;12.70;73.50;;;8.08;100.00;93450.91;4986270;28;20053;-55
2024/02/09 06:28:50;;;;;;;14.23;6.65;;;12.70;73.50;;;8.05;100.00;93441.72;4971576;28;20397;-53
2024/02/09 06:31:29;;;;;;;11.45;6.57;;;12.70;73.50;;;8.08;100.00;93438.47;4978324;28;20022;-54
2024/02/09 06:33:58;;;;;;;13.65;6.57;;;12.70;73.50;;;8.04;100.00;93429.53;4970179;28;20026;-56
2024/02/09 06:36:26;;;;;;;11.80;6.15;;;12.70;73.50;;;8.07;100.00;93441.41;4970370;28;20207;-56
2024/02/09 06:38:53;;;;;;;9.85;6.45;;;12.70;73.50;;;8.09;100.00;93447.19;4969496;28;20022;-50
2024/02/09 06:41:19;;;;;;;10.15;6.82;;;12.70;73.60;;;8.10;100.00;93440.81;4970537;28;20026;-55
2024/02/09 06:43:45;;;;;;;10.73;6.45;;;12.70;73.60;;;8.08;100.00;93450.91;4971282;28;20029;-56
2024/02/09 06:46:11;;;;;;;20.05;7.10;;;12.70;73.60;;;8.04;100.00;93434.06;4971134;28;20505;-52
2024/02/09 06:48:36;;;;;;;13.23;7.03;;;12.70;73.50;;;8.01;100.00;93427.47;4968822;28;20041;-52
2024/02/09 06:51:05;;;;;;;11.20;7.03;;;12.70;73.40;;;8.01;100.00;93426.69;4971237;28;20046;-56
2024/02/09 06:53:31;;;;;;;10.10;6.70;;;12.70;73.40;;;8.03;100.00;93435.91;4969909;28;20022;-55
2024/02/09 06:55:57;;;;;;;16.50;10.43;;;12.70;73.40;;;8.03;100.00;93429.84;4965437;28;20246;-53
2024/02/09 06:58:23;;;;;;;14.60;8.35;;;12.70;73.30;;;8.00;100.00;93439.16;4967529;28;20477;-55
2024/02/09 07:00:53;;;;;;;13.90;8.00;;;12.70;73.40;;;8.00;100.00;93433.09;4977840;28;20038;-53
2024/02/09 07:03:21;;;;;;;12.30;6.65;;;12.70;73.40;;;8.01;100.00;93448.69;4968428;28;20033;-55
2024/02/09 07:05:51;;;;;;;12.27;6.72;;;12.70;73.40;;;8.00;100.00;93433.09;4968297;28;20116;-53
2024/02/09 07:08:26;;;;;;;12.05;7.10;;;12.70;73.40;;;8.03;100.00;93420.00;4965383;28;20046;-53
2024/02/09 07:10:52;;;;;;;13.73;6.50;;;12.70;73.40;;;7.99;100.00;93429.66;4967369;28;20083;-53
2024/02/09 07:13:18;;;;;;;11.65;6.30;;;12.70;73.40;;;8.02;100.00;93417.66;4969221;28;20025;-57
2024/02/09 07:15:44;;;;;;;13.45;7.32;;;12.70;73.30;;;8.05;100.00;93415.19;4966405;28;20026;-54
2024/02/09 07:18:10;;;;;;;10.13;6.88;;;12.70;73.30;;;8.01;100.00;93408.91;4967920;28;20083;-51
2024/02/09 07:20:36;;;;;;;14.63;7.57;;;12.70;73.30;;;8.01;100.00;93418.75;4970350;28;20567;-55
2024/02/09 07:23:05;;;;;;;14.98;7.18;;;12.70;73.30;;;8.00;100.00;93423.25;4970683;28;20026;-54
2024/02/09 07:25:32;;;;;;;15.23;7.32;;;12.70;73.20;;;8.01;100.00;93413.44;4968887;28;20049;-55
2024/02/09 07:27:59;;;;;;;10.60;6.97;;;12.70;73.20;;;7.98;100.00;93409.50;4970367;28;20049;-53
2024/02/09 07:30:26;;;;;;;16.02;7.10;;;12.70;73.30;;;8.04;100.00;93418.91;4969982;28;20109;-53
2024/02/09 07:32:52;;;;;;;12.10;7.65;;;12.70;73.40;;;8.03;100.00;93427.97;4970284;28;20018;-53
2024/02/09 07:35:18;;;;;;;12.55;7.82;;;12.80;73.50;;;8.08;100.00;93429.69;4969738;28;20038;-53
2024/02/09 07:37:44;;;;;;;15.40;7.32;;;12.80;73.50;;;8.10;100.00;93438.16;4969877;28;20468;-55
2024/02/09 07:40:16;;;;;;;11.20;7.25;;;12.80;73.50;;;8.12;100.00;93436.00;4970527;28;20022;-52
2024/02/09 07:42:43;;;;;;;14.20;7.43;;;12.90;73.50;;;8.11;100.00;93424.56;4967907;28;20084;-52
2024/02/09 07:45:12;;;;;;;12.48;7.47;;;12.90;73.40;;;8.13;100.00;93420.88;4970203;28;20057;-56
2024/02/09 07:47:38;;;;;;;15.07;7.82;;;12.90;73.30;;;8.16;100.00;93402.47;4966302;28;20022;-52
2024/02/09 07:50:05;;;;;;;11.15;7.10;;;12.90;73.40;;;8.20;100.00;93411.38;4968394;28;20068;-53
2024/02/09 07:52:32;;;;;;;11.32;7.53;;;12.90;73.40;;;8.23;100.00;93417.97;4969604;28;20044;-55
2024/02/09 07:54:58;;;;;;;12.90;7.35;;;13.00;73.50;;;8.22;100.00;93429.66;4969418;28;20401;-54
2024/02/09 07:57:25;;;;;;;13.75;7.85;;;13.00;73.40;;;8.26;100.00;93433.28;4968376;28;20019;-56
2024/02/09 07:59:51;;;;;;;11.43;7.30;;;13.00;73.40;;;8.22;100.00;93438.41;4969803;28;20030;-56
2024/02/09 08:02:18;;;;;;;15.35;7.78;;;13.00;73.30;;;8.23;100.00;93433.88;4970128;28;20102;-56
2024/02/09 08:04:44;;;;;;;18.83;8.65;;;13.00;73.30;;;8.19;100.00;93444.31;4970109;28;20033;-57
2024/02/09 08:07:10;;;;;;;16.35;8.55;;;13.10;73.30;;;8.26;100.00;93438.56;4968960;28;20432;-55
2024/02/09 08:09:36;;;;;;;12.60;8.38;;;13.10;73.30;;;8.28;100.00;93436.41;4966803;28;20349;-54
2024/02/09 08:12:02;;;;;;;15.15;9.77;;;13.10;73.30;;;8.31;100.00;93430.50;4967626;28;20033;-53
2024/02/09 08:14:28;;;;;;;71.45;10.98;;;13.10;73.40;;;8.39;100.00;93435.09;4968478;28;20044;-56
2024/02/09 08:16:54;;;;;;;17.95;9.48;;;13.20;73.40;;;8.44;100.00;93439.50;4969090;28;20082;-54
2024/02/09 08:19:20;;;;;;;20.05;9.25;;;13.20;73.40;;;8.49;100.00;93437.53;4968917;28;20032;-55
2024/02/09 08:21:46;;;;;;;14.65;8.35;;;13.30;73.30;;;8.51;100.00;93445.16;4970797;28;20022;-56
2024/02/09 08:24:14;;;;;;;35.03;8.90;;;13.40;73.30;;;8.52;100.00;93452.03;4971040;28;20473;-54
2024/02/09 08:26:41;;;;;;;22.02;8.95;;;13.50;73.30;;;8.52;100.00;93460.00;4962764;28;20436;-52
2024/02/09 08:29:07;;;;;;;15.25;8.40;;;13.50;73.20;;;8.57;100.00;93449.28;4969415;28;20037;-54
2024/02/09 08:31:33;;;;;;;18.38;8.93;;;13.50;73.20;;;8.61;100.00;93457.41;4967974;28;20389;-55
2024/02/09 08:33:59;;;;;;;30.15;9.77;;;13.50;73.20;;;8.62;100.00;93459.78;4970032;28;20050;-55
2024/02/09 08:36:26;;;;;;;21.20;9.77;;;13.50;73.10;;;8.64;100.00;93452.28;4968898;28;20022;-53
2024/02/09 08:38:52;;;;;;;20.35;9.45;;;13.50;73.10;;;8.65;100.00;93451.19;4973070;28;20026;-57
2024/02/09 08:41:19;;;;;;;18.77;9.90;;;13.60;73.10;;;8.71;100.00;93450.00;4972465;28;20022;-56
2024/02/09 08:43:46;;;;;;;19.02;8.90;;;13.60;73.10;;;8.79;100.00;93453.75;4969522;28;20034;-51
2024/02/09 08:46:13;;;;;;;19.17;9.88;;;13.70;73.10;;;8.81;100.00;93443.63;4973371;28;20029;-56
2024/02/09 08:48:39;;;;;;;16.38;9.05;;;13.80;73.10;;;8.91;100.00;93442.59;4970474;28;20082;-57
2024/02/09 08:51:05;;;;;;;15.00;7.95;;;13.90;73.10;;;9.01;100.00;93447.63;4973606;28;20026;-55
2024/02/09 08:53:31;;;;;;;15.00;8.57;;;14.00;73.00;;;9.09;100.00;93438.09;4972111;28;20112;-57
2024/02/09 08:55:57;;;;;;;15.40;8.30;;;14.10;73.00;;;9.15;100.00;93421.75;4973242;28;20121;-55
2024/02/09 08:58:23;;;;;;;11.52;6.47;;;14.30;72.80;;;9.23;100.00;93418.31;4972802;28;20109;-56
2024/02/09 09:00:49;;;;;;;11.55;6.65;;;14.40;72.80;;;9.31;100.00;93416.00;4972929;28;20105;-57
2024/02/09 09:03:16;;;;;;;9.65;6.32;;;14.50;72.70;;;9.37;100.00;93418.22;4972623;28;20080;-55
2024/02/09 09:05:47;;;;;;;9.40;5.78;;;14.60;72.60;;;9.38;100.00;93419.78;4971965;28;20018;-52
2024/02/09 09:08:13;;;;;;;12.93;6.10;;;14.60;72.30;;;9.42;100.00;93407.44;4970423;28;20042;-51
2024/02/09 09:10:40;;;;;;;8.88;5.80;;;14.70;72.00;;;9.45;100.00;93398.84;4972947;28;20030;-56
2024/02/09 09:13:10;;;;;;;10.07;5.70;;;14.70;71.90;;;9.47;100.00;93396.66;4972244;28;20014;-54
2024/02/09 09:15:48;;;;;;;8.75;6.13;;;14.70;71.90;;;9.48;100.00;93379.63;4969318;28;20030;-53
2024/02/09 09:18:13;;;;;;;11.73;5.95;;;14.80;71.80;;;9.49;100.00;93389.19;4971627;28;20132;-52
2024/02/09 09:20:39;;;;;;;13.98;6.25;;;14.80;71.50;;;9.58;100.00;93383.84;4969590;28;20124;-55
2024/02/09 09:23:05;;;;;;;9.43;5.63;;;14.90;71.50;;;9.66;100.00;93395.59;4971016;28;20029;-51
2024/02/09 09:25:31;;;;;;;10.73;5.75;;;14.90;71.20;;;9.68;100.00;93388.06;4968189;28;20030;-54
2024/02/09 09:28:01;;;;;;;10.60;5.80;;;15.00;71.10;;;9.78;100.00;93376.34;4970656;28;20018;-57
2024/02/09 09:30:27;;;;;;;9.23;5.38;;;15.10;71.00;;;9.83;100.00;93368.22;4971261;28;20054;-56
2024/02/09 09:32:53;;;;;;;8.18;5.05;;;15.20;70.90;;;9.84;100.00;93359.97;4972758;28;20041;-56
2024/02/09 09:35:19;;;;;;;8.60;4.95;;;15.20;70.80;;;9.91;100.00;93354.94;4970421;28;20077;-57
2024/02/09 09:37:45;;;;;;;9.15;5.57;;;15.20;70.80;;;9.92;100.00;93351.19;4972015;28;20412;-56
2024/02/09 09:40:12;;;;;;;7.97;5.43;;;15.20;70.90;;;9.91;100.00;93343.53;4970715;28;20037;-54
2024/02/09 09:42:41;;;;;;;7.63;4.72;;;15.20;70.90;;;9.93;100.00;93338.66;4965732;28;20033;-54
2024/02/09 09:45:09;;;;;;;8.55;4.85;;;15.20;70.70;;;9.86;100.00;93344.44;4971802;28;20608;-55
2024/02/09 09:47:44;;;;;;;8.68;5.20;;;15.20;70.70;;;9.87;100.00;93347.88;4981452;28;20149;-57
2024/02/09 09:50:12;;;;;;;9.02;4.45;;;15.10;70.50;;;9.87;100.00;93343.38;4969023;28;20049;-55
2024/02/09 09:52:52;;;;;;;6.55;4.35;;;15.00;70.40;;;9.92;100.00;93340.53;4969855;28;20485;-55
2024/02/09 09:55:29;;;;;;;7.22;4.70;;;15.00;70.50;;;9.89;100.00;93335.84;4970163;28;20164;-57
2024/02/09 09:57:55;;;;;;;7.25;4.60;;;14.90;70.40;;;9.85;100.00;93331.47;4966378;28;20510;-57
2024/02/09 10:00:23;;;;;;;13.32;4.70;;;14.90;70.40;;;9.88;100.00;93323.66;4985612;28;20022;-56
2024/02/09 10:02:51;;;;;;;6.00;3.70;;;14.90;70.40;;;9.89;100.00;93333.19;4972432;28;20045;-57
2024/02/09 10:05:17;;;;;;;8.80;4.55;;;14.90;70.40;;;9.85;100.00;93339.47;4970867;28;20029;-56
2024/02/09 10:07:43;;;;;;;10.30;4.97;;;14.90;70.40;;;9.84;100.00;93343.19;4982039;28;20042;-54
2024/02/09 10:10:13;;;;;;;6.65;4.35;;;14.90;70.30;;;9.82;100.00;93342.75;4971154;28;20065;-55
2024/02/09 10:12:40;;;;;;;8.77;4.60;;;14.90;70.30;;;9.83;100.00;93342.41;4965843;28;20045;-54
2024/02/09 10:15:07;;;;;;;6.80;4.40;;;14.90;70.20;;;9.88;100.00;93336.94;4970837;28;20041;-56
2024/02/09 10:17:35;;;;;;;8.35;4.50;;;14.90;70.30;;;9.90;100.00;93332.13;4967423;28;20022;-56
2024/02/09 10:20:03;;;;;;;8.65;4.47;;;14.90;70.30;;;9.93;100.00;93330.69;4971736;28;20041;-53
2024/02/09 10:22:29;;;;;;;9.05;4.25;;;15.00;70.20;;;9.91;100.00;93333.66;4971348;28;20022;-54
2024/02/09 10:24:55;;;;;;;6.05;4.07;;;15.00;70.20;;;9.92;100.00;93335.22;4971199;28;20029;-55
2024/02/09 10:27:21;;;;;;;10.73;5.20;;;15.00;70.20;;;9.91;100.00;93343.53;4971076;28;20072;-57
2024/02/09 10:29:47;;;;;;;6.53;4.10;;;15.00;70.20;;;9.91;100.00;93336.31;4970775;28;20036;-56
2024/02/09 10:32:13;;;;;;;7.88;4.03;;;15.00;70.10;;;9.92;100.00;93335.22;4971708;28;20022;-53
2024/02/09 10:34:40;;;;;;;8.15;4.13;;;15.00;70.10;;;9.95;100.00;93336.47;4971046;28;20077;-57
2024/02/09 10:37:06;;;;;;;8.43;4.18;;;15.00;70.10;;;9.98;100.00;93329.75;4970487;28;20046;-55
2024/02/09 10:39:31;;;;;;;7.25;4.10;;;15.00;70.10;;;9.94;100.00;93341.00;4970874;28;20038;-52
2024/02/09 10:42:04;;;;;;;7.40;3.55;;;15.00;70.10;;;9.93;100.00;93339.47;4971001;28;20022;-53
2024/02/09 10:44:35;;;;;;;9.40;3.88;;;15.10;70.10;;;9.94;100.00;93333.03;4975360;28;20391;-54
2024/02/09 10:47:08;;;;;;;4.88;3.88;;;15.00;69.90;;;9.95;100.00;93337.25;4971246;28;20022;-50
2024/02/09 10:49:36;;;;;;;4.78;3.60;;;15.00;69.90;;;9.95;100.00;93333.81;4972063;28;20113;-50
2024/02/09 10:52:04;;;;;;;7.35;3.90;;;15.10;70.00;;;9.96;100.00;93332.72;4971320;28;20030;-58
2024/02/09 10:54:45;;;;;;;6.50;3.88;;;15.10;69.80;;;10.02;100.00;93328.78;4973159;28;20049;-55
2024/02/09 10:57:13;;;;;;;9.13;3.90;;;15.10;69.70;;;10.00;100.00;93323.03;4971331;28;20023;-55
2024/02/09 10:59:41;;;;;;;6.68;3.97;;;15.20;69.80;;;10.09;100.00;93326.47;4965791;28;20677;-59
2024/02/09 11:02:10;;;;;;;6.60;4.10;;;15.30;69.80;;;10.16;100.00;93332.06;4965371;28;20084;-59
2024/02/09 11:04:36;;;;;;;8.07;4.63;;;15.30;69.60;;;10.19;100.00;93326.13;4967096;28;20042;-59
2024/02/09 11:07:04;;;;;;;5.65;3.88;;;15.40;69.60;;;10.22;100.00;93321.28;4967513;28;20153;-57
2024/02/09 11:09:30;;;;;;;11.27;5.20;;;15.40;69.50;;;10.28;100.00;93312.84;4969393;28;20114;-58
2024/02/09 11:12:04;;;;;;;6.85;5.22;;;15.40;69.40;;;10.33;100.00;93320.63;4972769;28;20116;-58
2024/02/09 11:14:36;;;;;;;9.63;5.38;;;15.50;69.60;;;10.36;100.00;93309.34;4969410;28;20023;-59
2024/02/09 11:17:07;;;;;;;11.95;5.75;;;15.50;69.50;;;10.38;100.00;93306.38;4966286;28;20029;-56
2024/02/09 11:19:38;;;;;;;8.80;4.53;;;15.60;69.50;;;10.41;100.00;93311.06;4966689;28;20530;-57
2024/02/09 11:22:05;;;;;;;7.95;5.20;;;15.60;69.30;;;10.46;100.00;93315.44;4964111;28;20148;-54
2024/02/09 11:24:33;;;;;;;10.23;4.57;;;15.60;69.20;;;10.47;100.00;93315.13;4969806;28;20030;-50
2024/02/09 11:27:02;;;;;;;9.05;4.60;;;15.60;69.00;;;10.47;100.00;93311.69;4969914;28;20036;-54
2024/02/09 11:29:29;;;;;;;6.47;4.53;;;15.60;69.10;;;10.47;100.00;93304.47;4966655;28;20026;-52
2024/02/09 11:31:57;;;;;;;8.00;4.82;;;15.60;69.00;;;10.43;100.00;93308.84;4970568;28;20041;-51
2024/02/09 11:34:26;;;;;;;7.28;4.53;;;15.60;69.00;;;10.45;100.00;93296.03;4966189;28;20030;-53
2024/02/09 11:36:58;;;;;;;8.75;4.78;;;15.60;69.60;;;10.45;100.00;93300.56;4982850;23;20627;-59
2024/02/09 11:39:25;;;;;;;7.78;4.93;;;15.60;68.80;;;10.47;100.00;93298.38;4968479;28;20045;-58
2024/02/09 11:41:51;;;;;;;6.88;4.72;;;15.60;68.70;;;10.47;100.00;93295.72;4969185;28;20114;-60
2024/02/09 11:44:24;;;;;;;7.10;4.20;;;15.60;68.70;;;10.48;100.00;93295.38;4975342;28;20543;-59
2024/02/09 11:46:52;;;;;;;7.40;3.88;;;15.60;68.60;;;10.46;100.00;93288.81;4977581;28;20034;-59
2024/02/09 11:49:23;;;;;;;6.55;4.07;;;15.60;68.50;;;10.45;100.00;93282.72;4977664;28;20058;-59
2024/02/09 11:51:50;;;;;;;6.18;4.70;;;15.50;68.40;;;10.47;100.00;93285.84;4985912;28;20399;-59
2024/02/09 11:54:16;;;;;;;6.35;4.35;;;15.50;69.20;;;10.50;100.00;93282.53;4979214;28;20022;-60
2024/02/09 11:56:46;;;;;;;9.88;4.40;;;15.50;68.60;;;10.51;100.00;93278.00;4987922;28;20028;-59
2024/02/09 11:59:12;;;;;;;5.88;3.72;;;15.50;68.60;;;10.52;100.00;93269.69;4979106;28;20038;-59
2024/02/09 12:01:44;;;;;;;6.22;3.83;;;15.50;68.60;;;10.52;100.00;93268.91;4972761;28;20022;-59
2024/02/09 12:04:11;;;;;;;6.73;4.67;;;15.50;68.50;;;10.51;100.00;93275.34;4983289;28;20052;-60
2024/02/09 12:06:38;;;;;;;8.48;4.72;;;15.50;68.40;;;10.53;100.00;93265.13;4984959;28;20090;-58